createdAt,value
2019-02-25T00:02:27.898Z,78.07
2019-02-25T00:04:59.125Z,77.99
2019-02-25T00:07:29.546Z,77.67
2019-02-25T00:09:59.982Z,77.54
2019-02-25T00:12:30.217Z,77.45
2019-02-25T00:15:01.700Z,77.79
2019-02-25T00:17:34.647Z,77.58
2019-02-25T00:20:08.965Z,78.28
2019-02-25T00:22:40.913Z,78.04
2019-02-25T00:25:11.588Z,78.07
2019-02-25T00:27:43.661Z,78.31
2019-02-25T00:30:14.654Z,78.19
2019-02-25T00:32:45.964Z,78.54
2019-02-25T00:35:22.538Z,78.64
2019-02-25T00:37:55.083Z,78.98
2019-02-25T00:40:27.529Z,78.87
2019-02-25T00:42:57.662Z,79.50
2019-02-25T00:45:28.420Z,79.69
2019-02-25T00:48:01.525Z,80.09
2019-02-25T00:50:31.846Z,80.62
2019-02-25T00:53:04.931Z,80.48
2019-02-25T00:55:36.968Z,81.11
2019-02-25T00:58:10.192Z,81.18
2019-02-25T01:00:40.859Z,81.26
2019-02-25T01:03:12.299Z,80.99
2019-02-25T01:05:43.867Z,80.75
2019-02-25T01:08:16.803Z,80.77
2019-02-25T01:10:47.358Z,80.92
2019-02-25T01:13:19.431Z,81.51
2019-02-25T01:15:49.861Z,81.03
2019-02-25T01:18:20.315Z,80.82
2019-02-25T01:20:50.477Z,80.80
2019-02-25T01:23:22.586Z,81.33
2019-02-25T01:25:54.664Z,81.75
2019-02-25T01:28:25.030Z,82.08
2019-02-25T01:30:56.240Z,81.73
2019-02-25T01:33:28.811Z,81.85
2019-02-25T01:36:00.375Z,81.58
2019-02-25T01:38:32.609Z,81.37
2019-02-25T01:41:02.975Z,81.46
2019-02-25T01:43:33.706Z,81.49
2019-02-25T01:46:03.942Z,81.83
2019-02-25T01:48:34.860Z,81.52
2019-02-25T01:51:05.165Z,81.56
2019-02-25T01:53:35.542Z,81.27
2019-02-25T01:56:07.807Z,81.25
2019-02-25T01:58:41.000Z,80.90
2019-02-25T02:01:11.382Z,80.50
2019-02-25T02:03:42.917Z,81.37
2019-02-25T02:06:15.462Z,81.99
2019-02-25T02:08:45.793Z,81.88
2019-02-25T02:11:17.843Z,81.41
2019-02-25T02:13:49.497Z,81.56
2019-02-25T02:16:20.051Z,81.47
2019-02-25T02:18:52.329Z,81.48
2019-02-25T02:21:22.760Z,81.32
2019-02-25T02:23:55.460Z,81.60
2019-02-25T02:26:25.806Z,81.66
2019-02-25T02:28:57.327Z,81.62
2019-02-25T02:31:28.584Z,81.48
2019-02-25T02:33:59.737Z,81.45
2019-02-25T02:36:30.499Z,81.82
2019-02-25T02:39:00.938Z,81.69
2019-02-25T02:42:20.137Z,81.82
2019-02-25T02:45:05.302Z,81.51
2019-02-25T02:48:06.854Z,81.35
2019-02-25T02:50:37.066Z,81.04
2019-02-25T02:53:07.412Z,81.04
2019-02-25T02:55:37.780Z,81.44
2019-02-25T02:58:07.861Z,81.42
2019-02-25T03:00:39.804Z,81.22
2019-02-25T03:03:10.286Z,81.16
2019-02-25T03:05:41.594Z,81.46
2019-02-25T03:08:12.936Z,81.26
2019-02-25T03:10:43.387Z,80.74
2019-02-25T03:13:14.448Z,80.84
2019-02-25T03:15:44.957Z,81.86
2019-02-25T03:18:15.398Z,81.70
2019-02-25T03:20:48.784Z,81.60
2019-02-25T03:23:19.112Z,81.96
2019-02-25T03:25:50.568Z,81.71
2019-02-25T03:28:21.076Z,81.95
2019-02-25T03:30:51.484Z,82.02
2019-02-25T03:33:21.933Z,82.54
2019-02-25T03:35:52.278Z,82.29
2019-02-25T03:38:23.438Z,82.13
2019-02-25T03:40:54.941Z,81.97
2019-02-25T03:43:25.221Z,82.11
2019-02-25T03:45:56.002Z,81.92
2019-02-25T03:48:28.069Z,82.01
2019-02-25T03:51:00.030Z,81.88
2019-02-25T03:53:30.940Z,81.63
2019-02-25T03:56:03.144Z,81.61
2019-02-25T03:58:33.844Z,82.09
2019-02-25T04:01:06.014Z,81.95
2019-02-25T04:03:36.638Z,81.93
2019-02-25T04:06:06.977Z,81.68
2019-02-25T04:08:39.250Z,81.74
2019-02-25T04:11:10.945Z,81.50
2019-02-25T04:13:41.868Z,81.43
2019-02-25T04:16:12.077Z,82.12
2019-02-25T04:18:43.687Z,82.51
2019-02-25T04:21:16.217Z,82.19
2019-02-25T04:23:46.644Z,82.53
2019-02-25T04:26:17.882Z,83.02
2019-02-25T04:28:49.249Z,83.14
2019-02-25T04:31:21.394Z,83.98
2019-02-25T04:33:52.021Z,83.76
2019-02-25T04:36:23.306Z,83.68
2019-02-25T04:38:55.882Z,83.37
2019-02-25T04:41:26.031Z,83.32
2019-02-25T04:43:57.663Z,83.89
2019-02-25T04:46:29.637Z,84.03
2019-02-25T04:49:02.725Z,83.69
2019-02-25T04:51:32.961Z,83.27
2019-02-25T04:54:06.347Z,82.90
2019-02-25T04:56:36.513Z,82.56
2019-02-25T04:59:06.956Z,82.97
2019-02-25T05:01:38.504Z,83.35
2019-02-25T05:04:10.626Z,84.52
2019-02-25T05:06:41.463Z,84.61
2019-02-25T05:09:12.862Z,84.59
2019-02-25T05:11:44.871Z,84.36
2019-02-25T05:14:15.734Z,84.20
2019-02-25T05:16:46.599Z,84.11
2019-02-25T05:19:17.819Z,84.07
2019-02-25T05:21:48.184Z,84.18
2019-02-25T05:24:18.371Z,84.30
2019-02-25T05:26:48.729Z,84.43
2019-02-25T05:29:20.927Z,84.02
2019-02-25T05:31:53.025Z,83.76
2019-02-25T05:34:23.463Z,83.96
2019-02-25T05:36:55.600Z,84.31
2019-02-25T05:39:28.818Z,83.95
2019-02-25T05:41:59.311Z,83.54
2019-02-25T05:44:30.585Z,82.39
2019-02-25T05:47:01.411Z,82.36
2019-02-25T05:49:32.622Z,82.52
2019-02-25T05:52:03.753Z,82.61
2019-02-25T05:54:35.474Z,82.75
2019-02-25T05:57:05.535Z,82.65
2019-02-25T05:59:35.581Z,82.06
2019-02-25T06:02:05.875Z,81.71
2019-02-25T06:04:37.943Z,81.59
2019-02-25T06:07:10.598Z,81.75
2019-02-25T06:09:41.132Z,82.25
2019-02-25T06:12:11.908Z,82.80
2019-02-25T06:14:43.364Z,82.57
2019-02-25T06:17:14.938Z,83.21
2019-02-25T06:19:45.277Z,83.82
2019-02-25T06:22:15.405Z,83.50
2019-02-25T06:24:45.764Z,83.71
2019-02-25T06:27:16.130Z,83.34
2019-02-25T06:29:47.711Z,83.13
2019-02-25T06:32:21.003Z,82.58
2019-02-25T06:34:53.273Z,82.15
2019-02-25T06:37:25.012Z,82.14
2019-02-25T06:39:55.343Z,82.09
2019-02-25T06:42:25.679Z,81.35
2019-02-25T06:44:55.906Z,80.83
2019-02-25T06:47:26.357Z,80.80
2019-02-25T06:49:59.373Z,75.39
2019-02-25T06:52:29.721Z,73.35
2019-02-25T06:55:00.141Z,70.58
2019-02-25T06:57:32.327Z,69.07
2019-02-25T07:00:05.106Z,67.37
2019-02-25T07:02:37.451Z,65.83
2019-02-25T07:05:17.205Z,65.18
2019-02-25T07:08:09.806Z,63.58
2019-02-25T07:11:01.110Z,61.79
2019-02-25T07:13:49.855Z,59.33
2019-02-25T07:16:38.286Z,58.06
2019-02-25T07:19:27.037Z,57.20
2019-02-25T07:22:02.284Z,56.91
2019-02-25T07:24:53.185Z,54.91
2019-02-25T07:27:46.936Z,53.47
2019-02-25T07:30:45.918Z,52.04
2019-02-25T07:33:32.116Z,50.65
2019-02-25T07:36:21.374Z,50.45
2019-02-25T07:39:23.418Z,49.97
2019-02-25T07:42:19.026Z,46.85
2019-02-25T07:45:09.114Z,47.68
2019-02-25T07:47:48.649Z,46.16
2019-02-25T07:50:54.890Z,46.73
2019-02-25T07:53:47.465Z,44.40
2019-02-25T07:56:29.623Z,44.36
2019-02-25T07:59:25.231Z,44.99
2019-02-25T08:02:05.700Z,44.19
2019-02-25T08:04:50.963Z,43.06
2019-02-25T08:07:59.047Z,42.08
2019-02-25T08:10:38.590Z,39.58
2019-02-25T08:13:30.303Z,39.11
2019-02-25T08:16:21.713Z,39.04
2019-02-25T08:19:10.154Z,41.26
2019-02-25T08:21:58.810Z,41.95
2019-02-25T08:24:55.843Z,42.59
2019-02-25T08:27:36.811Z,40.61
2019-02-25T08:30:26.067Z,40.89
2019-02-25T08:33:13.286Z,40.52
2019-02-25T08:37:02.657Z,38.47
2019-02-25T08:39:42.837Z,40.16
2019-02-25T08:42:42.157Z,42.41
2019-02-25T08:45:33.876Z,41.44
2019-02-25T08:48:23.651Z,39.68
2019-02-25T08:50:56.270Z,38.50
2019-02-25T08:53:27.670Z,38.25
2019-02-25T08:55:58.447Z,38.30
2019-02-25T08:58:30.585Z,37.35
2019-02-25T09:01:01.019Z,35.46
2019-02-25T09:03:31.345Z,36.30
2019-02-25T09:06:02.500Z,36.73
2019-02-25T09:08:33.905Z,37.46
2019-02-25T09:11:13.698Z,36.93
2019-02-25T09:13:39.416Z,36.87
2019-02-25T09:16:09.945Z,37.69
2019-02-25T09:18:40.381Z,37.06
2019-02-25T09:21:12.244Z,37.35
2019-02-25T09:23:45.136Z,37.41
2019-02-25T09:26:16.433Z,38.29
2019-02-25T09:28:46.707Z,37.44
2019-02-25T09:31:17.034Z,37.32
2019-02-25T09:33:48.388Z,36.60
2019-02-25T09:36:20.333Z,37.03
2019-02-25T09:38:50.887Z,37.58
2019-02-25T09:41:29.716Z,38.27
2019-02-25T09:43:54.099Z,37.73
2019-02-25T09:46:25.555Z,37.25
2019-02-25T09:48:55.784Z,37.12
2019-02-25T09:51:26.465Z,35.70
2019-02-25T09:53:57.075Z,36.67
2019-02-25T09:56:28.528Z,35.84
2019-02-25T09:59:00.165Z,36.00
2019-02-25T10:01:30.602Z,35.31
2019-02-25T10:04:01.040Z,36.04
2019-02-25T10:06:34.221Z,35.47
2019-02-25T10:09:06.917Z,35.30
2019-02-25T10:11:38.768Z,35.92
2019-02-25T10:14:11.790Z,37.20
2019-02-25T10:16:42.223Z,37.81
2019-02-25T10:19:12.627Z,37.37
2019-02-25T10:21:42.918Z,37.12
2019-02-25T10:24:14.735Z,37.87
2019-02-25T10:26:45.963Z,37.21
2019-02-25T10:29:17.327Z,37.11
2019-02-25T10:31:48.068Z,35.92
2019-02-25T10:34:19.399Z,36.46
2019-02-25T10:36:52.470Z,34.85
2019-02-25T10:39:24.031Z,36.27
2019-02-25T10:41:59.495Z,33.92
2019-02-25T10:44:31.933Z,33.77
2019-02-25T10:47:03.852Z,34.09
2019-02-25T10:49:35.872Z,32.80
2019-02-25T10:52:08.817Z,32.75
2019-02-25T10:54:40.437Z,32.73
2019-02-25T10:57:16.303Z,32.95
2019-02-25T10:59:47.867Z,33.00
2019-02-25T11:02:19.528Z,35.81
2019-02-25T11:04:51.423Z,36.15
2019-02-25T11:07:23.361Z,37.92
2019-02-25T11:10:04.416Z,37.68
2019-02-25T11:12:35.743Z,38.02
2019-02-25T11:15:09.091Z,36.26
2019-02-25T11:17:42.504Z,34.30
2019-02-25T11:20:13.303Z,33.57
2019-02-25T11:22:45.701Z,33.69
2019-02-25T11:25:16.164Z,34.66
2019-02-25T11:27:47.478Z,35.71
2019-02-25T11:30:21.119Z,36.40
2019-02-25T11:32:53.945Z,36.47
2019-02-25T11:35:24.706Z,37.76
2019-02-25T11:37:58.486Z,36.97
2019-02-25T11:40:29.025Z,36.22
2019-02-25T11:42:59.601Z,35.57
2019-02-25T11:45:33.789Z,35.29
2019-02-25T11:48:04.079Z,35.31
2019-02-25T11:50:34.511Z,36.38
2019-02-25T11:53:06.711Z,35.83
2019-02-25T11:55:37.457Z,35.65
2019-02-25T11:58:08.909Z,36.10
2019-02-25T12:00:39.930Z,35.54
2019-02-25T12:03:15.245Z,35.64
2019-02-25T12:05:45.750Z,35.36
2019-02-25T12:08:19.123Z,35.39
2019-02-25T12:10:49.759Z,35.61
2019-02-25T12:13:19.957Z,36.16
2019-02-25T12:15:50.105Z,37.21
2019-02-25T12:18:21.419Z,36.94
2019-02-25T12:20:52.988Z,37.12
2019-02-25T12:23:27.752Z,36.89
2019-02-25T12:25:58.494Z,37.27
2019-02-25T12:28:30.241Z,37.14
2019-02-25T12:31:00.894Z,36.73
2019-02-25T12:33:31.188Z,37.91
2019-02-25T12:36:01.745Z,37.71
2019-02-25T12:38:32.564Z,38.04
2019-02-25T12:41:03.120Z,38.34
2019-02-25T12:43:33.560Z,37.50
2019-02-25T12:46:04.283Z,37.35
2019-02-25T12:48:36.019Z,38.87
2019-02-25T12:51:07.499Z,38.32
2019-02-25T12:53:37.951Z,36.90
2019-02-25T12:56:12.718Z,34.92
2019-02-25T12:58:43.291Z,34.01
2019-02-25T13:01:14.523Z,34.46
2019-02-25T13:03:46.309Z,32.74
2019-02-25T13:06:17.042Z,32.67
2019-02-25T13:08:48.494Z,33.00
2019-02-25T13:11:18.822Z,33.60
2019-02-25T13:13:49.332Z,33.06
2019-02-25T13:16:19.789Z,33.05
2019-02-25T13:18:51.457Z,33.34
2019-02-25T13:21:21.902Z,33.22
2019-02-25T13:23:54.700Z,33.60
2019-02-25T13:26:27.190Z,34.28
2019-02-25T13:28:58.142Z,34.81
2019-02-25T13:31:29.948Z,35.05
2019-02-25T13:34:02.321Z,35.52
2019-02-25T13:36:32.956Z,35.12
2019-02-25T13:39:06.516Z,34.73
2019-02-25T13:41:37.015Z,34.05
2019-02-25T13:44:07.532Z,34.00
2019-02-25T13:46:40.176Z,34.51
2019-02-25T13:49:12.569Z,34.03
2019-02-25T13:51:44.962Z,34.49
2019-02-25T13:54:15.386Z,34.39
2019-02-25T13:56:50.327Z,34.75
2019-02-25T13:59:22.787Z,34.70
2019-02-25T14:01:53.188Z,34.71
2019-02-25T14:04:23.571Z,35.14
2019-02-25T14:06:54.962Z,35.41
2019-02-25T14:09:25.220Z,35.22
2019-02-25T14:11:56.896Z,35.32
2019-02-25T14:14:29.149Z,35.08
2019-02-25T14:16:59.707Z,34.91
2019-02-25T14:19:30.510Z,34.67
2019-02-25T14:22:01.284Z,34.44
2019-02-25T14:24:32.675Z,34.96
2019-02-25T14:27:02.983Z,35.17
2019-02-25T14:29:33.587Z,34.88
2019-02-25T14:32:05.088Z,34.21
2019-02-25T14:34:37.239Z,34.28
2019-02-25T14:37:09.602Z,33.73
2019-02-25T14:39:40.752Z,33.73
2019-02-25T14:42:13.535Z,33.57
2019-02-25T14:44:49.984Z,33.95
2019-02-25T14:47:25.790Z,34.15
2019-02-25T14:49:55.364Z,34.74
2019-02-25T14:52:29.387Z,34.96
2019-02-25T14:55:01.558Z,34.93
2019-02-25T14:57:35.621Z,34.69
2019-02-25T15:00:10.383Z,34.42
2019-02-25T15:02:41.369Z,34.19
2019-02-25T15:05:15.030Z,34.84
2019-02-25T15:07:48.681Z,35.59
2019-02-25T15:10:19.673Z,35.68
2019-02-25T15:12:58.661Z,35.20
2019-02-25T15:15:26.789Z,33.63
2019-02-25T15:17:57.952Z,31.70
2019-02-25T15:20:28.964Z,30.79
2019-02-25T15:22:59.487Z,31.64
2019-02-25T15:25:33.957Z,32.45
2019-02-25T15:28:09.351Z,33.76
2019-02-25T15:30:39.671Z,33.87
2019-02-25T15:33:10.248Z,34.27
2019-02-25T15:35:43.381Z,33.97
2019-02-25T15:38:14.174Z,33.22
2019-02-25T15:40:44.604Z,33.31
2019-02-25T15:43:18.147Z,32.76
2019-02-25T15:45:48.177Z,32.22
2019-02-25T15:48:20.290Z,31.13
2019-02-25T15:50:55.593Z,30.61
2019-02-25T15:53:26.961Z,31.34
2019-02-25T15:56:01.341Z,31.42
2019-02-25T15:58:32.673Z,31.43
2019-02-25T16:01:05.985Z,31.86
2019-02-25T16:03:37.142Z,32.43
2019-02-25T16:06:11.671Z,32.78
2019-02-25T16:08:45.294Z,33.20
2019-02-25T16:11:20.721Z,33.64
2019-02-25T16:13:55.729Z,33.82
2019-02-25T16:16:26.996Z,34.10
2019-02-25T16:18:58.370Z,34.56
2019-02-25T16:21:31.715Z,34.49
2019-02-25T16:24:04.826Z,34.66
2019-02-25T16:26:36.110Z,35.01
2019-02-25T16:29:09.112Z,35.11
2019-02-25T16:31:41.137Z,35.45
2019-02-25T16:34:14.333Z,35.42
2019-02-25T16:36:49.691Z,35.53
2019-02-25T16:39:19.154Z,35.22
2019-02-25T16:41:51.437Z,33.73
2019-02-25T16:44:21.853Z,34.01
2019-02-25T16:46:54.059Z,33.70
2019-02-25T16:49:24.773Z,33.45
2019-02-25T16:52:00.349Z,33.31
2019-02-25T16:54:31.526Z,34.13
2019-02-25T16:57:03.861Z,33.95
2019-02-25T16:59:35.517Z,34.88
2019-02-25T17:02:07.034Z,34.29
2019-02-25T17:04:38.930Z,34.46
2019-02-25T17:07:11.780Z,34.69
2019-02-25T17:09:44.209Z,36.61
2019-02-25T17:12:15.935Z,36.12
2019-02-25T17:14:46.925Z,38.23
2019-02-25T17:17:17.331Z,37.86
2019-02-25T17:19:48.057Z,39.31
2019-02-25T17:22:20.837Z,38.38
2019-02-25T17:24:54.287Z,38.09
2019-02-25T17:27:28.564Z,38.42
2019-02-25T17:29:59.863Z,39.01
2019-02-25T17:32:31.470Z,39.32
2019-02-25T17:35:05.238Z,40.49
2019-02-25T17:37:37.786Z,40.69
2019-02-25T17:40:12.923Z,40.83
2019-02-25T17:42:44.950Z,40.87
2019-02-25T17:45:18.420Z,40.28
2019-02-25T17:47:48.789Z,40.36
2019-02-25T17:50:19.833Z,40.16
2019-02-25T17:52:50.367Z,40.22
2019-02-25T17:55:20.900Z,40.04
2019-02-25T17:57:52.008Z,40.05
2019-02-25T18:00:49.830Z,40.14
2019-02-25T18:03:21.683Z,40.37
2019-02-25T18:05:56.297Z,40.72
2019-02-25T18:08:27.955Z,41.26
2019-02-25T18:10:59.928Z,41.07
2019-02-25T18:13:32.451Z,41.21
2019-02-25T18:16:03.567Z,41.66
2019-02-25T18:18:36.613Z,42.34
2019-02-25T18:21:08.419Z,42.95
2019-02-25T18:23:39.852Z,43.92
2019-02-25T18:26:12.427Z,44.29
2019-02-25T18:28:43.841Z,45.25
2019-02-25T18:31:20.249Z,45.42
2019-02-25T18:33:52.738Z,46.03
2019-02-25T18:36:26.477Z,47.12
2019-02-25T18:38:56.780Z,46.99
2019-02-25T18:41:31.395Z,46.99
2019-02-25T18:44:01.468Z,47.36
2019-02-25T18:46:32.355Z,47.31
2019-02-25T18:49:05.644Z,47.73
2019-02-25T18:51:39.462Z,47.91
2019-02-25T18:54:10.032Z,48.85
2019-02-25T18:56:43.004Z,48.83
2019-02-25T18:59:17.746Z,49.03
2019-02-25T19:01:51.456Z,49.01
2019-02-25T19:04:22.457Z,48.73
2019-02-25T19:06:53.215Z,48.74
2019-02-25T19:09:26.038Z,48.93
2019-02-25T19:11:58.658Z,49.07
2019-02-25T19:14:31.539Z,48.91
2019-02-25T19:17:06.524Z,48.99
2019-02-25T19:19:38.561Z,49.62
2019-02-25T19:22:12.646Z,50.91
2019-02-25T19:24:47.234Z,51.68
2019-02-25T19:27:18.035Z,52.16
2019-02-25T19:29:54.559Z,52.41
2019-02-25T19:32:26.874Z,52.47
2019-02-25T19:35:01.901Z,53.44
2019-02-25T19:37:38.253Z,54.25
2019-02-25T19:40:13.950Z,55.17
2019-02-25T19:42:51.308Z,55.43
2019-02-25T19:45:21.166Z,57.66
2019-02-25T19:47:52.480Z,56.24
2019-02-25T19:50:25.933Z,56.45
2019-02-25T19:53:02.491Z,57.12
2019-02-25T19:55:33.772Z,57.24
2019-02-25T19:58:04.480Z,56.94
2019-02-25T20:00:35.950Z,56.67
2019-02-25T20:03:07.533Z,55.99
2019-02-25T20:05:43.313Z,55.84
2019-02-25T20:08:15.788Z,56.16
2019-02-25T20:10:49.821Z,56.52
2019-02-25T20:13:22.709Z,56.21
2019-02-25T20:15:56.547Z,56.81
2019-02-25T20:18:27.019Z,57.22
2019-02-25T20:20:59.368Z,57.25
2019-02-25T20:23:31.000Z,57.47
2019-02-25T20:26:02.739Z,57.86
2019-02-25T20:28:35.830Z,58.11
2019-02-25T20:31:08.347Z,58.68
2019-02-25T20:33:39.173Z,58.47
2019-02-25T20:36:09.930Z,58.22
2019-02-25T20:38:40.556Z,57.97
2019-02-25T20:41:16.036Z,57.74
2019-02-25T20:43:47.229Z,57.66
2019-02-25T20:46:23.927Z,57.64
2019-02-25T20:48:56.075Z,58.40
2019-02-25T20:51:29.819Z,60.17
2019-02-25T20:54:02.084Z,60.12
2019-02-25T20:56:33.294Z,60.50
2019-02-25T20:59:06.169Z,60.74
2019-02-25T21:01:42.321Z,60.61
2019-02-25T21:04:13.511Z,60.60
2019-02-25T21:06:44.506Z,60.68
2019-02-25T21:09:15.675Z,61.85
2019-02-25T21:11:45.832Z,62.36
2019-02-25T21:14:16.786Z,62.03
2019-02-25T21:16:48.966Z,62.56
2019-02-25T21:19:20.064Z,62.84
2019-02-25T21:21:55.061Z,62.71
2019-02-25T21:24:24.613Z,62.38
2019-02-25T21:26:59.613Z,62.10
2019-02-25T21:29:31.852Z,62.64
2019-02-25T21:32:05.851Z,63.24
2019-02-25T21:34:36.238Z,64.73
2019-02-25T21:37:06.282Z,64.03
2019-02-25T21:39:38.238Z,64.31
2019-02-25T21:42:10.806Z,64.48
2019-02-25T21:44:40.887Z,64.28
2019-02-25T21:47:11.583Z,64.05
2019-02-25T21:49:41.887Z,64.56
2019-02-25T21:52:15.422Z,65.80
2019-02-25T21:54:46.807Z,65.71
2019-02-25T21:57:17.280Z,64.82
2019-02-25T21:59:50.364Z,64.03
2019-02-25T22:02:22.228Z,63.51
2019-02-25T22:04:53.965Z,63.43
2019-02-25T22:07:26.765Z,65.08
2019-02-25T22:09:56.697Z,65.70
2019-02-25T22:12:28.900Z,66.33
2019-02-25T22:14:59.092Z,66.47
2019-02-25T22:17:29.422Z,66.96
2019-02-25T22:19:59.440Z,67.53
2019-02-25T22:22:31.089Z,68.13
2019-02-25T22:25:05.925Z,68.04
2019-02-25T22:27:36.851Z,68.40
2019-02-25T22:30:09.848Z,68.16
2019-02-25T22:32:40.796Z,68.06
2019-02-25T22:35:14.903Z,67.90
2019-02-25T22:37:49.349Z,68.23
2019-02-25T22:40:17.553Z,68.22
2019-02-25T22:42:50.049Z,68.41
2019-02-25T22:45:19.713Z,68.32
2019-02-25T22:47:49.737Z,68.18
2019-02-25T22:50:19.760Z,67.93
2019-02-25T22:52:55.610Z,67.53
2019-02-25T22:55:22.688Z,66.98
2019-02-25T22:57:54.084Z,66.46
2019-02-25T23:00:33.349Z,66.94
2019-02-25T23:03:04.603Z,66.09
2019-02-25T23:05:34.548Z,65.85
2019-02-25T23:08:04.539Z,65.79
2019-02-25T23:10:38.039Z,66.37
2019-02-25T23:13:06.731Z,66.90
2019-02-25T23:15:36.857Z,66.85
2019-02-25T23:18:10.032Z,66.79
2019-02-25T23:20:38.843Z,66.55
2019-02-25T23:23:08.782Z,66.77
2019-02-25T23:25:38.784Z,67.12
2019-02-25T23:28:09.212Z,66.87
2019-02-25T23:30:40.726Z,67.01
2019-02-25T23:33:14.470Z,67.10
2019-02-25T23:35:46.971Z,67.29
2019-02-25T23:38:17.308Z,67.89
2019-02-25T23:40:49.453Z,68.13
2019-02-25T23:43:19.917Z,68.09
2019-02-25T23:45:50.321Z,68.46
2019-02-25T23:48:21.565Z,68.26
2019-02-25T23:50:54.945Z,68.61
2019-02-25T23:53:28.234Z,68.77
2019-02-25T23:55:58.769Z,68.76
2019-02-25T23:58:29.220Z,69.36
